Weather reports worldwide

Advertisment
Fichtelberg, Germany (10578): temperature & dewpoint: 14.08.2019 06:00:00 - 20.08.2019 06:00:00 (CEST)Fichtelberg, Germany (10578): temperature 5cm & temperature -5cm: 14.08.2019 06:00:00 - 20.08.2019 06:00:00 (CEST)Fichtelberg, Germany (10578): temperature -20cm & temperature -100cm: 14.08.2019 06:00:00 - 20.08.2019 06:00:00 (CEST)Fichtelberg, Germany (10578): wind speed & gusts: 14.08.2019 06:00:00 - 20.08.2019 06:00:00 (CEST)Fichtelberg, Germany (10578): wind direction: 14.08.2019 06:00:00 - 20.08.2019 06:00:00 (CEST)Fichtelberg, Germany (10578): visibility: 14.08.2019 06:00:00 - 20.08.2019 06:00:00 (CEST)Fichtelberg, Germany (10578): sunshine duration: 14.08.2019 06:00:00 - 20.08.2019 06:00:00 (CEST)
Date & Time tt [°C] td [°C] tt 5cm [°C] tt -5cm [°C] tt -20cm [°C] tt -100cm [°C] ff [km/h] ff [kn] fx [km/h] fx [kn] dd vv [km] sd [min]
20.08.2019 06:00:00 11,3 9,6 10,1 12,0 14,0 12,6 12 7 19 10 WNW 44 0
20.08.2019 05:00:00 11,5 9,1 10,0 12,2 14,2 12,6 19 10 26 14 W 66 0
20.08.2019 04:00:00 11,8 10,1 10,8 12,4 14,3 12,6 22 12 26 14 WSW 50 0
20.08.2019 03:00:00 12,0 11,4 11,5 12,6 14,4 12,6 22 12 27 15 WSW 6 0
20.08.2019 02:00:00 12,4 11,8 12,2 12,4 14,6 12,6 22 12 27 15 WSW 1,4 0
20.08.2019 01:00:00 12,0 10,5 10,8 12,3 14,8 12,6 17 9 21 11 SW 32 0
20.08.2019 00:00:00 12,3 8,7 7,5 12,9 14,9 12,6 3 2 7 4 N 66 0
19.08.2019 23:00:00 11,9 10,1 9,0 13,7 15,0 12,6 5 3 17 9 W 64 0
19.08.2019 22:00:00 12,3 11,0 10,8 14,4 15,1 12,6 15 8 23 12 WSW 35 0
19.08.2019 21:00:00 12,9 11,6 12,0 15,4 15,0 12,6 20 11 26 14 SW 27 0
19.08.2019 20:00:00 13,9 12,4 13,5 16,5 14,9 12,6 17 9 25 14 SW 30 0
19.08.2019 19:00:00 14,9 12,1 14,9 17,4 14,8 12,6 9 5 22 12 SW 51 33
19.08.2019 18:00:00 15,0 12,7 15,7 17,0 14,7 12,6 11 6 16 9 SW 33 3
19.08.2019 17:00:00 15,1 11,7 15,5 17,1 14,6 12,6 7 4 26 14 NNW 71 1
19.08.2019 16:00:00 14,6 12,3 15,8 16,8 14,5 12,6 9 5 32 17 NNW 55 5
19.08.2019 15:00:00 13,8 12,5 14,7 16,3 14,5 12,6 14 8 29 16 WNW 24 6
19.08.2019 14:00:00 12,5 12,0 13,4 14,7 14,5 12,6 24 13 39 21 W 0,6 0
19.08.2019 13:00:00 12,3 11,8 12,7 14,7 14,5 12,6 22 12 37 20 WNW 0,1 0
19.08.2019 12:00:00 12,9 12,2 13,2 14,7 14,5 12,6 22 12 42 23 W 2,2 0
19.08.2019 11:00:00 13,3 11,9 14,0 14,4 14,5 12,6 25 14 39 21 W 51 0
19.08.2019 10:00:00 12,7 12,0 12,9 14,1 14,6 12,6 30 16 41 22 W 20 0
19.08.2019 09:00:00 12,5 12,0 12,7 13,9 14,7 12,6 26 14 41 22 W 1,1 0
19.08.2019 08:00:00 12,5 12,0 12,6 13,8 14,8 12,6 31 17 49 26 W 0,2 0
19.08.2019 07:00:00 12,6 12,1 12,7 13,8 14,9 12,6 39 21 55 30 W 0,2 0
19.08.2019 06:00:00 12,9 12,4 12,9 13,8 15,0 12,6 39 21 52 28 WSW 0,7 0
19.08.2019 05:00:00 13,1 12,1 12,8 14,0 15,1 12,6 35 19 50 27 WSW 55 0
19.08.2019 04:00:00 13,9 11,0 13,5 14,1 15,3 12,6 42 23 50 27 W 75 0
19.08.2019 03:00:00 13,8 11,6 13,0 14,3 15,4 12,6 31 17 45 25 W 73 0
19.08.2019 02:00:00 14,0 11,7 12,9 14,6 15,6 12,6 38 21 46 25 W 75 0
19.08.2019 01:00:00 13,7 11,6 12,5 15,1 15,7 12,6 32 17 51 28 WNW 75 0
19.08.2019 00:00:00 14,3 12,4 13,2 15,9 15,8 12,6 39 21 50 27 W 75 0
18.08.2019 23:00:00 15,0 13,8 14,6 16,6 15,8 12,6 21 11 53 28 WNW 28 0
18.08.2019 22:00:00 19,2 12,5 17,8 17,1 15,8 12,6 24 13 37 20 S 75 0
18.08.2019 21:00:00 19,5 12,2 18,7 17,9 15,8 12,6 27 15 34 18 SW 69 0
18.08.2019 20:00:00 19,6 12,2 18,2 19,1 15,6 12,6 24 13 41 22 WSW 75 29
18.08.2019 19:00:00 21,0 11,8 21,3 20,7 15,3 12,6 33 18 53 29 WSW 75 45
18.08.2019 18:00:00 21,6 12,3 22,4 22,0 14,9 12,6 35 19 57 31 WSW 75 53
18.08.2019 17:00:00 22,1 12,9 25,0 22,4 14,5 12,6 35 19 59 32 SW 75 58
18.08.2019 16:00:00 21,2 13,0 24,3 22,0 14,0 12,6 38 21 56 30 WSW 58 60
18.08.2019 15:00:00 20,9 13,9 24,7 21,3 13,6 12,6 36 19 57 31 WSW 60 55
18.08.2019 14:00:00 19,7 13,5 23,0 20,1 13,3 12,6 47 26 61 33 WSW 67 52
18.08.2019 13:00:00 18,7 13,4 21,8 18,7 13,0 12,6 33 18 59 32 SW 68 56
18.08.2019 12:00:00 18,2 13,1 20,8 16,8 12,8 12,6 41 22 57 31 WSW 74 60
18.08.2019 11:00:00 15,9 12,3 17,5 14,8 12,7 12,6 48 26 70 38 WSW 75 59
18.08.2019 10:00:00 14,1 11,3 14,3 13,1 12,7 12,6 50 27 69 37 SW 71 44
18.08.2019 09:00:00 12,4 10,9 12,5 12,4 12,7 12,6 47 26 65 35 SW 27 9
18.08.2019 08:00:00 11,6 11,1 11,8 12,2 12,7 12,6 44 24 63 34 SW 5 0
18.08.2019 07:00:00 11,8 11,3 11,8 12,1 12,7 12,7 48 26 67 36 WSW 7 0
18.08.2019 06:00:00 11,8 11,4 11,9 12,0 12,8 12,7 47 25 61 33 WSW 0,1 0
18.08.2019 05:00:00 11,6 11,2 11,6 12,0 12,8 12,7 42 23 52 28 WSW 0,2 0
18.08.2019 04:00:00 11,5 11,0 11,4 12,0 12,8 12,7 37 20 51 28 SW 0,8 0
18.08.2019 03:00:00 11,6 10,8 11,5 11,9 12,9 12,7 40 21 50 27 SW 15 0
18.08.2019 02:00:00 11,7 10,7 11,6 11,9 12,9 12,7 39 21 54 29 WSW 35 0
18.08.2019 01:00:00 11,7 10,6 11,5 12,0 13,0 12,7 46 25 61 33 WSW 19 0
18.08.2019 00:00:00 12,1 10,1 11,8 12,1 13,0 12,7 47 26 63 34 WSW 53 0
17.08.2019 23:00:00 12,2 9,5 11,9 12,2 13,1 12,7 45 24 62 34 WSW 51 0
17.08.2019 22:00:00 12,3 8,8 11,9 12,5 13,1 12,7 39 21 56 30 WSW 53 0
17.08.2019 21:00:00 12,7 9,0 12,3 12,9 13,1 12,7 41 22 56 31 WSW 70 0
17.08.2019 20:00:00 13,2 9,4 12,8 13,5 13,0 12,7 44 24 53 29 WSW 63 0
17.08.2019 19:00:00 13,4 10,4 13,3 14,1 12,9 12,7 35 19 48 26 SW 47 0
17.08.2019 18:00:00 14,1 10,0 14,4 14,7 12,8 12,7 28 15 42 23 SW 51 0
17.08.2019 17:00:00 14,4 9,7 15,1 15,0 12,7 12,7 33 18 49 26 SW 71 9
17.08.2019 16:00:00 14,2 9,8 15,0 14,1 12,5 12,7 31 17 44 24 SW 59 0
17.08.2019 15:00:00 13,9 9,7 15,6 13,6 12,5 12,7 28 15 49 27 SW 44 0
17.08.2019 14:00:00 13,1 8,8 14,0 13,2 12,4 12,7 37 20 55 30 SW 48 0
17.08.2019 13:00:00 12,8 8,6 14,2 12,4 12,4 12,7 37 20 58 32 SSW 51 0
17.08.2019 12:00:00 11,9 7,9 12,1 12,1 12,3 12,7 40 22 63 34 SW 50 0
17.08.2019 11:00:00 11,4 7,6 11,6 12,1 12,3 12,7 43 23 59 32 SW 52 0
17.08.2019 10:00:00 11,8 7,5 12,6 11,6 12,3 12,7 37 20 53 28 SW 71 7
17.08.2019 09:00:00 11,9 7,3 12,2 10,8 12,4 12,7 40 21 56 31 SW 48 9
17.08.2019 08:00:00 11,1 6,8 10,7 10,3 12,5 12,8 37 20 49 27 SW 54 0
17.08.2019 07:00:00 10,9 6,4 10,4 10,1 12,6 12,8 37 20 45 24 SW 63 0
17.08.2019 06:00:00 10,9 6,2 10,1 10,1 12,7 12,8 34 18 39 21 SW 59 0
17.08.2019 05:00:00 10,6 6,5 9,7 10,1 12,9 12,8 34 18 39 21 SW 63 0
17.08.2019 04:00:00 10,3 6,9 9,4 10,0 13,1 12,8 31 17 39 21 SSW 56 0
17.08.2019 03:00:00 10,1 6,7 8,8 10,2 13,2 12,8 33 18 37 20 SW 59 0
17.08.2019 02:00:00 10,3 6,7 8,8 10,5 13,4 12,8 28 15 30 16 SW 47 0
17.08.2019 01:00:00 10,3 6,7 8,6 10,9 13,6 12,8 24 13 27 15 SW 54 0
17.08.2019 00:00:00 10,4 6,4 9,2 11,2 13,8 12,8 22 12 25 14 SW 56 0
16.08.2019 23:00:00 10,5 5,9 9,0 11,8 13,9 12,8 23 12 27 15 SW 65 0
16.08.2019 22:00:00 10,5 5,7 8,7 12,6 14,0 12,8 20 11 25 14 SW 69 0
16.08.2019 21:00:00 10,8 5,4 9,4 13,8 14,0 12,8 21 11 22 12 SW 57 0
16.08.2019 20:00:00 11,2 6,1 9,9 15,2 13,9 12,8 16 9 21 11 WSW 61 3
16.08.2019 19:00:00 12,9 6,6 13,6 16,6 13,7 12,8 19 10 34 18 W 75 35
16.08.2019 18:00:00 13,4 7,4 15,2 17,5 13,5 12,8 16 8 29 16 WNW 53 29
16.08.2019 17:00:00 13,3 7,4 14,7 17,9 13,2 12,8 21 11 34 18 W 48 44
16.08.2019 16:00:00 13,7 8,4 16,4 16,2 13,0 12,8 26 14 44 24 WNW 75 11
16.08.2019 15:00:00 13,4 8,2 15,3 16,0 12,8 12,8 27 15 39 21 WNW 61 17
16.08.2019 14:00:00 10,9 7,8 11,3 15,5 12,6 12,9 34 18 47 25 WNW 64 17
16.08.2019 13:00:00 10,6 9,3 12,3 14,0 12,4 12,9 26 14 34 18 WNW 35 0
16.08.2019 12:00:00 11,5 9,3 13,5 14,2 12,3 12,9 25 14 38 20 WNW 49 15
16.08.2019 11:00:00 10,4 9,3 11,5 13,0 12,3 12,9 19 11 35 19 WNW 15 16
16.08.2019 10:00:00 9,6 9,1 11,0 11,3 12,3 12,9 28 15 35 19 WNW 0,9 3
16.08.2019 09:00:00 8,8 8,4 9,1 10,8 12,3 12,9 29 15 38 21 WNW 0,1 0
16.08.2019 08:00:00 9,0 8,5 9,4 10,7 12,4 12,9 30 16 41 22 WNW 0,1 0
16.08.2019 07:00:00 9,1 8,7 9,3 10,7 12,5 12,9 27 14 39 21 WNW 0,1 0
16.08.2019 06:00:00 9,3 8,9 9,4 10,8 12,5 12,9 32 17 43 23 WNW 0,1 0
16.08.2019 05:00:00 9,3 8,9 9,4 10,8 12,6 12,9 30 16 46 25 WNW 0,1 0
16.08.2019 04:00:00 9,0 8,6 9,1 10,9 12,7 12,9 33 18 48 26 WNW 0,1 0
16.08.2019 03:00:00 9,1 8,6 9,2 11,0 12,8 12,9 35 19 42 23 WNW 0,1 0
16.08.2019 02:00:00 9,2 8,7 8,9 11,3 12,9 12,9 35 19 45 24 W 0,1 0
16.08.2019 01:00:00 10,0 9,5 10,1 11,5 12,9 12,9 36 19 45 25 W 0,1 0
16.08.2019 00:00:00 10,0 9,5 10,1 11,5 13,0 12,9 35 19 50 27 W 0,1 0
15.08.2019 23:00:00 10,1 9,6 10,0 11,7 13,1 12,9 36 20 51 27 W 14 0
15.08.2019 22:00:00 10,1 9,6 10,1 11,8 13,2 12,9 43 23 51 28 W 0,4 0
15.08.2019 21:00:00 9,9 9,3 9,5 12,3 13,2 13,0 36 20 61 33 W 0,6 0
15.08.2019 20:00:00 10,5 9,5 10,5 12,9 13,2 13,0 41 22 52 28 WSW 71 0
15.08.2019 19:00:00 10,5 9,6 10,9 13,3 13,1 13,0 34 19 49 26 WSW 27 0
15.08.2019 18:00:00 10,9 8,9 11,3 14,2 13,0 13,0 39 21 56 31 SW 54 5
15.08.2019 17:00:00 12,4 8,9 13,7 14,6 12,8 13,0 35 19 58 31 SW 59 12
15.08.2019 16:00:00 11,2 8,5 11,6 14,3 12,7 13,0 41 22 59 32 SW 47 0
15.08.2019 15:00:00 11,7 8,1 12,2 14,5 12,5 13,0 34 19 51 28 SSW 51 7
15.08.2019 14:00:00 10,9 8,3 11,1 14,4 12,3 13,0 29 15 48 26 SSW 7 4
15.08.2019 13:00:00 11,4 8,5 12,3 12,9 12,1 13,0 29 15 44 24 SSW 62 1
15.08.2019 12:00:00 12,0 7,0 11,8 13,4 12,0 13,0 26 14 44 24 SW 26 0
15.08.2019 11:00:00 12,4 6,8 14,0 12,4 11,9 13,0 25 14 50 27 SW 73 6
15.08.2019 10:00:00 11,4 5,9 12,5 11,2 11,9 13,0 35 19 48 26 SW 65 57
15.08.2019 09:00:00 10,7 6,0 11,2 9,3 12,0 13,0 27 15 43 23 SSW 45 60
15.08.2019 08:00:00 9,4 5,2 8,8 8,4 12,2 13,0 32 18 41 22 SSW 75 60
15.08.2019 07:00:00 8,5 5,3 7,5 8,2 12,4 13,0 34 18 39 21 SSW 70 39
15.08.2019 06:00:00 8,2 5,2 7,0 8,3 12,6 13,0 30 16 36 19 SW 49 0
15.08.2019 05:00:00 8,2 5,0 7,0 8,4 12,8 13,0 27 15 29 16 SW 59 0
15.08.2019 04:00:00 8,4 4,5 7,0 8,6 13,0 13,0 24 13 26 14 SW 58 0
15.08.2019 03:00:00 8,4 4,9 6,9 8,9 13,3 13,0 22 12 24 13 WSW 75 0
15.08.2019 02:00:00 8,4 4,6 6,8 9,2 13,6 13,0 23 12 26 14 WSW 63 0
15.08.2019 01:00:00 8,5 4,2 5,6 9,7 13,8 13,0 14 8 17 9 SSW 75 0
15.08.2019 00:00:00 8,9 4,3 5,9 10,3 14,1 13,1 11 6 16 9 SSE 65 0
14.08.2019 23:00:00 8,8 4,3 6,3 11,0 14,3 13,1 13 7 14 8 SE 75 0
14.08.2019 22:00:00 9,3 3,5 4,5 12,1 14,4 13,1 5 3 7 4 ESE 68 0
14.08.2019 21:00:00 9,9 3,9 7,2 13,5 14,5 13,1 7 4 10 6 NNE 58 13
14.08.2019 20:00:00 10,6 5,2 9,7 14,9 14,4 13,1 11 6 14 8 WNW 75 14
14.08.2019 19:00:00 10,7 5,8 10,7 16,2 14,3 13,1 11 6 24 13 NW 70 19
14.08.2019 18:00:00 11,9 5,7 12,6 17,3 14,0 13,1 16 9 36 19 NW 67 38
14.08.2019 17:00:00 12,1 6,2 14,5 17,5 13,8 13,1 21 11 34 19 WNW 75 42
14.08.2019 16:00:00 11,1 7,4 12,5 17,7 13,5 13,1 21 11 37 20 NW 68 30
14.08.2019 15:00:00 12,3 6,2 16,5 17,2 13,2 13,1 27 15 36 20 WNW 44 43
14.08.2019 14:00:00 10,2 5,6 10,9 16,0 12,9 13,1 21 11 37 20 NW 46 21
14.08.2019 13:00:00 11,8 4,5 13,1 15,0 12,7 13,1 31 17 45 25 W 70 23
14.08.2019 12:00:00 11,1 5,0 12,6 14,2 12,6 13,1 27 15 46 25 WNW 75 20
14.08.2019 11:00:00 10,8 4,5 12,4 13,1 12,5 13,1 29 16 44 24 WNW 65 36
14.08.2019 10:00:00 10,5 5,1 11,9 11,3 12,5 13,1 19 10 35 19 WNW 75 38
14.08.2019 09:00:00 9,5 5,0 10,2 9,9 12,7 13,1 19 11 31 17 W 75 40
14.08.2019 08:00:00 7,9 4,5 8,3 8,9 12,9 13,1 19 10 29 15 W 52 0
14.08.2019 07:00:00 7,3 4,1 7,2 8,5 13,1 13,1 24 13 35 19 W 53 8
14.08.2019 06:00:00 6,1 3,3 5,6 8,4 13,4 13,1 30 16 35 19 W 66 0

tt = temperature
td = dewpoint
tt 5cm = temperature 5cm
tt -5cm = temperature -5cm
tt -20cm = temperature -20cm
tt -100cm = temperature -100cm
ff = wind speed
fx = gusts
dd = wind direction
vv = visibility
sd = sunshine duration

Next stations